Malcolm Mc Kinnon Airport Brunswick US
ICAO: KSSI
IATA: SSI
Category: Medium
Scheduled Services: No

Elevation: 19 ft
TransAlt. 18000 ft.

Airport Communications:
ASOS:118.525
JACKSONVILLE CNTR:126.75
CTAF/UNICOM:123.05

KSSI Zoom In..

Runways:

(A) RW 04 length 5584 ft width 100 ft
---- / hdg 41

(B) RW 16 length 3313 ft width 75 ft
---- / hdg 159

(C) RW 22 length 5584 ft width 100 ft
---- / hdg 221

(D) RW 34 length 3313 ft width 75 ft
---- / hdg 339

Location; KSSI
Day. 04 / Time. 15.53 Zulu
* Altimeter: 30.15
* Temperature: 21° c. 69.8°f.
* Wind from: 110° Speed 05 kn.
Dewpoint: 16° c.
Visibility: 10 Statute Miles.
Clouds: Few 5000 ft.

KSSI 041553Z AUTO 11005KT 10SM FEW050 21/16 A3015 RMK AO2 SLP210 T02110156

Going to: --> -->


Wind From 110°
Speed 05 kn.

 
 
jpsmedia worldairports.se 2020   terms of use